createdAt,value
2023-05-23T00:00:01.883Z,98.30
2023-05-23T00:02:43.004Z,98.50
2023-05-23T00:05:11.846Z,98.70
2023-05-23T00:07:40.560Z,98.80
2023-05-23T00:10:09.671Z,99.00
2023-05-23T00:12:39.618Z,99.30
2023-05-23T00:15:10.102Z,99.90
2023-05-23T00:17:39.732Z,99.90
2023-05-23T00:20:12.045Z,99.90
2023-05-23T00:22:43.191Z,99.90
2023-05-23T00:25:12.322Z,99.90
2023-05-23T00:27:40.980Z,99.90
2023-05-23T00:30:10.209Z,99.90
2023-05-23T00:32:38.940Z,99.90
2023-05-23T00:35:10.207Z,99.90
2023-05-23T00:37:38.911Z,99.90
2023-05-23T00:40:09.430Z,99.90
2023-05-23T00:42:38.007Z,99.90
2023-05-23T00:45:07.834Z,99.90
2023-05-23T00:47:36.532Z,99.90
2023-05-23T00:50:06.011Z,99.90
2023-05-23T00:52:36.414Z,99.90
2023-05-23T00:55:06.100Z,99.90
2023-05-23T00:57:35.585Z,99.90
2023-05-23T01:00:04.616Z,99.90
2023-05-23T01:02:37.449Z,99.90
2023-05-23T01:05:07.279Z,99.90
2023-05-23T01:07:37.367Z,99.90
2023-05-23T01:10:07.009Z,99.90
2023-05-23T01:12:47.607Z,99.90
2023-05-23T01:15:18.815Z,99.90
2023-05-23T01:17:53.357Z,99.90
2023-05-23T01:20:25.418Z,99.90
2023-05-23T01:23:29.342Z,99.90
2023-05-23T01:26:13.599Z,99.90
2023-05-23T01:28:48.330Z,99.90
2023-05-23T01:31:18.791Z,99.90
2023-05-23T01:33:50.200Z,99.90
2023-05-23T01:36:19.030Z,99.90
2023-05-23T01:38:47.771Z,99.90
2023-05-23T01:41:16.415Z,99.90
2023-05-23T01:43:46.462Z,99.90
2023-05-23T01:46:16.889Z,99.90
2023-05-23T01:48:47.107Z,99.90
2023-05-23T01:51:16.618Z,99.90
2023-05-23T01:53:45.471Z,99.90
2023-05-23T01:56:15.587Z,99.90
2023-05-23T01:58:45.676Z,99.90
2023-05-23T02:01:14.536Z,99.90
2023-05-23T02:03:43.468Z,99.90
2023-05-23T02:06:12.469Z,99.90
2023-05-23T02:08:41.059Z,99.90
2023-05-23T02:11:10.776Z,99.90
2023-05-23T02:13:39.427Z,99.90
2023-05-23T02:16:10.214Z,99.90
2023-05-23T02:18:39.807Z,99.90
2023-05-23T02:21:08.557Z,99.90
2023-05-23T02:23:39.559Z,99.90
2023-05-23T02:26:08.298Z,99.90
2023-05-23T02:28:38.042Z,99.90
2023-05-23T02:31:07.271Z,99.90
2023-05-23T02:33:37.347Z,99.90
2023-05-23T02:36:07.103Z,99.90
2023-05-23T02:38:35.981Z,99.90
2023-05-23T02:41:05.330Z,99.90
2023-05-23T02:43:34.123Z,99.90
2023-05-23T02:46:04.041Z,99.90
2023-05-23T02:48:32.644Z,99.90
2023-05-23T02:51:02.773Z,99.90
2023-05-23T02:53:32.013Z,99.90
2023-05-23T02:56:00.686Z,99.90
2023-05-23T02:58:30.041Z,99.90
2023-05-23T03:00:59.421Z,99.90
2023-05-23T03:03:28.957Z,99.90
2023-05-23T03:05:57.841Z,99.90
2023-05-23T03:08:28.027Z,99.90
2023-05-23T03:10:56.672Z,99.90
2023-05-23T03:13:25.407Z,99.90
2023-05-23T03:15:54.109Z,99.90
2023-05-23T03:18:22.864Z,99.90
2023-05-23T03:20:51.857Z,99.90
2023-05-23T03:23:24.229Z,99.90
2023-05-23T03:25:54.247Z,99.90
2023-05-23T03:28:22.960Z,99.90
2023-05-23T03:30:53.662Z,99.90
2023-05-23T03:33:22.391Z,99.90
2023-05-23T03:35:51.450Z,99.90
2023-05-23T03:38:20.401Z,99.90
2023-05-23T03:40:49.135Z,98.50
2023-05-23T03:43:19.180Z,97.50
2023-05-23T03:45:48.258Z,95.60
2023-05-23T03:48:19.354Z,93.70
2023-05-23T03:50:49.257Z,91.00
2023-05-23T03:53:18.092Z,89.50
2023-05-23T03:55:46.945Z,87.10
2023-05-23T03:58:15.687Z,80.70
2023-05-23T04:00:48.851Z,80.30
2023-05-23T04:03:18.840Z,77.60
2023-05-23T04:05:47.825Z,79.40
2023-05-23T04:08:17.626Z,71.00
2023-05-23T04:10:46.481Z,64.00
2023-05-23T04:13:15.504Z,58.40
2023-05-23T04:15:45.336Z,45.60
2023-05-23T04:18:17.562Z,39.70
2023-05-23T04:20:47.741Z,33.00
2023-05-23T04:23:16.606Z,27.70
2023-05-23T04:25:49.506Z,23.70
2023-05-23T04:28:29.663Z,21.50
2023-05-23T04:31:02.948Z,23.50
2023-05-23T04:33:36.408Z,21.30
2023-05-23T04:36:05.792Z,15.90
2023-05-23T04:38:35.088Z,12.50
2023-05-23T04:41:03.894Z,11.80
2023-05-23T04:43:46.202Z,9.30
2023-05-23T04:46:23.200Z,7.30
2023-05-23T04:48:59.182Z,9.40
2023-05-23T04:51:27.897Z,5.50
2023-05-23T04:54:02.684Z,4.00
2023-05-23T04:56:31.630Z,2.80
2023-05-23T04:59:00.347Z,2.40
2023-05-23T05:01:31.450Z,1.00
2023-05-23T05:04:01.899Z,1.50
2023-05-23T05:06:31.130Z,1.00
2023-05-23T05:08:59.777Z,2.40
2023-05-23T05:11:28.723Z,3.70
2023-05-23T05:13:57.583Z,3.00
2023-05-23T05:16:27.276Z,3.50
2023-05-23T05:18:56.159Z,1.80
2023-05-23T05:21:26.391Z,1.40
2023-05-23T05:23:55.090Z,1.20
2023-05-23T05:26:23.880Z,1.00
2023-05-23T05:28:53.786Z,1.00
2023-05-23T05:31:23.359Z,1.00
2023-05-23T05:33:52.007Z,1.00
2023-05-23T05:36:21.691Z,1.00
2023-05-23T05:38:53.492Z,1.00
2023-05-23T05:41:23.427Z,1.00
2023-05-23T05:43:54.915Z,1.00
2023-05-23T05:46:23.745Z,1.00
2023-05-23T05:48:53.405Z,1.60
2023-05-23T05:51:23.611Z,4.10
2023-05-23T05:53:53.889Z,10.70
2023-05-23T05:56:23.215Z,12.00
2023-05-23T05:58:51.875Z,14.80
2023-05-23T06:01:20.560Z,16.30
2023-05-23T06:03:49.616Z,13.60
2023-05-23T06:06:19.823Z,13.70
2023-05-23T06:08:49.783Z,13.50
2023-05-23T06:11:20.533Z,14.00
2023-05-23T06:13:49.177Z,10.10
2023-05-23T06:16:17.845Z,5.70
2023-05-23T06:18:47.452Z,1.80
2023-05-23T06:21:17.168Z,1.00
2023-05-23T06:23:50.943Z,1.00
2023-05-23T06:26:21.131Z,1.00
2023-05-23T06:28:49.893Z,1.00
2023-05-23T06:31:18.638Z,1.00
2023-05-23T06:33:47.318Z,1.00
2023-05-23T06:36:16.061Z,1.00
2023-05-23T06:38:44.685Z,1.00
2023-05-23T06:41:13.528Z,1.00
2023-05-23T06:43:43.748Z,1.00
2023-05-23T06:46:17.808Z,1.00
2023-05-23T06:48:46.478Z,1.00
2023-05-23T06:51:15.744Z,1.00
2023-05-23T06:53:44.549Z,1.00
2023-05-23T06:56:13.547Z,1.00
2023-05-23T06:58:54.708Z,1.00
2023-05-23T07:01:24.083Z,1.00
2023-05-23T07:03:53.474Z,1.00
2023-05-23T07:06:23.322Z,1.00
2023-05-23T07:08:53.007Z,1.00
2023-05-23T07:11:23.691Z,1.00
2023-05-23T07:14:00.408Z,1.00
2023-05-23T07:16:38.880Z,1.00
2023-05-23T07:19:09.719Z,1.00
2023-05-23T07:21:44.609Z,1.00
2023-05-23T07:24:15.843Z,1.00
2023-05-23T07:26:44.524Z,1.00
2023-05-23T07:29:14.947Z,1.00
2023-05-23T07:31:45.012Z,1.00
2023-05-23T07:34:15.601Z,1.00
2023-05-23T07:36:57.031Z,1.00
2023-05-23T07:39:28.145Z,1.00
2023-05-23T07:41:59.465Z,1.00
2023-05-23T07:44:29.932Z,1.00
2023-05-23T07:46:58.829Z,1.00
2023-05-23T07:49:27.958Z,1.00
2023-05-23T07:51:57.234Z,1.00
2023-05-23T07:54:26.585Z,1.00
2023-05-23T07:57:00.570Z,1.00
2023-05-23T07:59:31.400Z,1.00
2023-05-23T08:02:00.333Z,1.00
2023-05-23T08:04:30.102Z,1.00
2023-05-23T08:09:38.181Z,1.00
2023-05-23T08:12:07.679Z,1.80
2023-05-23T08:14:49.711Z,1.00
2023-05-23T08:17:34.436Z,1.00
2023-05-23T08:20:05.376Z,1.00
2023-05-23T08:22:35.082Z,6.10
2023-05-23T08:25:06.230Z,5.00
2023-05-23T08:27:38.210Z,2.60
2023-05-23T08:30:19.036Z,2.30
2023-05-23T08:32:47.718Z,1.00
2023-05-23T08:35:16.495Z,1.00
2023-05-23T08:37:46.286Z,1.00
2023-05-23T08:40:20.183Z,1.00
2023-05-23T08:42:56.423Z,1.00
2023-05-23T08:45:29.557Z,1.00
2023-05-23T09:13:50.528Z,1.00
2023-05-23T09:16:21.315Z,1.00
2023-05-23T09:18:53.408Z,1.00
2023-05-23T09:21:26.438Z,1.00
2023-05-23T09:24:10.998Z,1.00
2023-05-23T09:26:39.957Z,1.00
2023-05-23T09:29:15.574Z,1.00
2023-05-23T09:31:45.668Z,1.00
2023-05-23T09:34:14.348Z,1.00
2023-05-23T09:36:44.308Z,1.00
2023-05-23T09:39:14.368Z,1.00
2023-05-23T09:41:43.223Z,1.00
2023-05-23T09:44:11.866Z,1.00
2023-05-23T09:46:41.983Z,1.00
2023-05-23T09:49:19.180Z,1.00
2023-05-23T09:51:59.283Z,1.00
2023-05-23T09:54:28.360Z,1.00
2023-05-23T09:57:01.615Z,1.00
2023-05-23T09:59:32.903Z,1.00
2023-05-23T10:02:07.893Z,1.00
2023-05-23T10:04:38.185Z,1.00
2023-05-23T10:07:14.585Z,1.00
2023-05-23T10:09:46.820Z,1.00
2023-05-23T10:12:42.290Z,1.00
2023-05-23T10:15:14.464Z,1.00
2023-05-23T10:17:54.991Z,1.00
2023-05-23T10:20:27.233Z,1.00
2023-05-23T10:22:57.475Z,1.00
2023-05-23T10:25:40.621Z,1.00
2023-05-23T10:28:10.009Z,1.00
2023-05-23T10:30:39.887Z,1.00
2023-05-23T10:33:11.830Z,1.00
2023-05-23T10:35:49.095Z,1.00
2023-05-23T10:38:32.090Z,4.40
2023-05-23T10:41:08.677Z,21.50
2023-05-23T10:43:45.994Z,55.20
2023-05-23T10:46:15.252Z,79.40
2023-05-23T10:48:46.119Z,88.50
2023-05-23T10:51:16.184Z,91.20
2023-05-23T10:53:46.350Z,94.60
2023-05-23T10:56:22.548Z,97.30
2023-05-23T11:01:41.409Z,99.90
2023-05-23T11:04:13.772Z,99.90
2023-05-23T11:06:44.710Z,99.90
2023-05-23T11:09:16.763Z,99.90
2023-05-23T11:12:06.732Z,99.90
2023-05-23T11:14:53.904Z,99.90
2023-05-23T11:17:32.822Z,99.90
2023-05-23T11:20:07.011Z,99.90
2023-05-23T11:22:37.872Z,99.90
2023-05-23T11:25:09.326Z,99.90
2023-05-23T11:27:39.298Z,99.90
2023-05-23T11:30:10.203Z,99.90
2023-05-23T11:32:39.068Z,99.90
2023-05-23T12:24:19.079Z,1.00
2023-05-23T12:26:49.013Z,1.00
2023-05-23T12:29:19.583Z,99.90
2023-05-23T12:31:51.573Z,99.90
2023-05-23T12:34:22.754Z,99.90
2023-05-23T12:36:59.683Z,99.90
2023-05-23T12:39:38.152Z,99.90
2023-05-23T12:42:10.903Z,99.90
2023-05-23T12:44:41.916Z,99.90
2023-05-23T12:47:10.869Z,99.90
2023-05-23T12:49:40.014Z,99.90
2023-05-23T12:52:08.985Z,99.90
2023-05-23T12:54:39.062Z,99.90
2023-05-23T12:57:07.755Z,99.90
2023-05-23T12:59:36.392Z,99.90
2023-05-23T14:03:39.427Z,99.90
2023-05-23T14:06:08.214Z,99.90
2023-05-23T14:08:37.073Z,99.90
2023-05-23T14:11:05.766Z,99.90
2023-05-23T14:13:34.308Z,99.90
2023-05-23T14:16:03.126Z,99.90
2023-05-23T14:18:31.798Z,99.90
2023-05-23T14:21:01.769Z,99.90
2023-05-23T14:23:30.933Z,99.90
2023-05-23T14:25:59.672Z,99.90
2023-05-23T14:28:28.631Z,99.90
2023-05-23T14:30:57.464Z,99.90
2023-05-23T14:33:26.359Z,99.90
2023-05-23T14:35:55.179Z,99.90
2023-05-23T14:38:46.112Z,99.90
2023-05-23T14:41:15.390Z,99.90
2023-05-23T14:43:44.070Z,99.90
2023-05-23T14:46:20.161Z,99.90
2023-05-23T14:48:59.014Z,99.90
2023-05-23T14:51:43.005Z,99.90
2023-05-23T14:54:17.221Z,99.90
2023-05-23T14:57:11.573Z,99.90
2023-05-23T14:59:40.294Z,99.90
2023-05-23T15:02:27.406Z,99.90
2023-05-23T15:04:57.919Z,99.90
2023-05-23T15:07:26.594Z,99.90
2023-05-23T15:09:56.743Z,99.90
2023-05-23T15:12:25.482Z,99.90
2023-05-23T15:14:54.052Z,99.90
2023-05-23T15:17:25.778Z,99.90
2023-05-23T15:19:57.094Z,99.90
2023-05-23T15:25:00.733Z,99.90
2023-05-23T15:27:29.383Z,99.90
2023-05-23T15:29:58.114Z,99.90
2023-05-23T15:32:26.801Z,99.90
2023-05-23T15:34:55.515Z,99.90
2023-05-23T15:37:24.168Z,99.90
2023-05-23T15:43:08.995Z,99.90
2023-05-23T15:45:37.756Z,99.90
2023-05-23T15:48:27.085Z,99.90
2023-05-23T15:50:55.788Z,99.90
2023-05-23T15:53:24.447Z,99.90
2023-05-23T15:55:53.147Z,99.90
2023-05-23T15:58:23.212Z,99.90
2023-05-23T16:00:51.910Z,99.90
2023-05-23T16:03:20.634Z,99.90
2023-05-23T16:05:49.326Z,99.90
2023-05-23T16:08:17.885Z,99.90
2023-05-23T16:10:46.826Z,99.90
2023-05-23T16:13:16.821Z,99.90
2023-05-23T16:15:47.985Z,99.90
2023-05-23T16:18:16.777Z,99.90
2023-05-23T16:20:45.457Z,99.90
2023-05-23T16:23:14.279Z,99.90
2023-05-23T16:25:43.245Z,99.90
2023-05-23T16:28:11.935Z,99.90
2023-05-23T16:30:40.547Z,99.90
2023-05-23T16:33:10.618Z,99.90
2023-05-23T16:35:39.469Z,99.90
2023-05-23T16:38:08.292Z,99.90
2023-05-23T16:40:36.978Z,99.90
2023-05-23T16:43:05.636Z,99.90
2023-05-23T16:45:34.347Z,99.90
2023-05-23T16:48:03.065Z,99.90
2023-05-23T16:50:33.103Z,99.90
2023-05-23T16:53:01.861Z,99.90
2023-05-23T16:55:30.457Z,99.90
2023-05-23T16:57:59.314Z,99.90
2023-05-23T17:00:28.334Z,99.90
2023-05-23T17:02:57.240Z,99.90
2023-05-23T17:05:26.688Z,99.90
2023-05-23T17:07:57.074Z,99.90
2023-05-23T17:10:26.054Z,99.90
2023-05-23T17:12:55.028Z,99.90
2023-05-23T17:15:24.022Z,99.90
2023-05-23T17:17:52.662Z,99.90
2023-05-23T17:20:26.937Z,99.90
2023-05-23T17:22:57.236Z,99.90
2023-05-23T17:25:26.025Z,99.90
2023-05-23T17:27:55.883Z,99.90
2023-05-23T17:40:13.699Z,99.90
2023-05-23T17:42:43.712Z,99.90
2023-05-23T17:45:14.372Z,99.90
2023-05-23T17:47:43.120Z,99.90
2023-05-23T17:50:13.167Z,99.90
2023-05-23T17:52:42.630Z,99.90
2023-05-23T17:56:38.704Z,99.90
2023-05-23T17:59:07.460Z,99.90
2023-05-23T18:01:36.417Z,99.90
2023-05-23T18:04:05.789Z,99.90
2023-05-23T18:06:34.465Z,99.90
2023-05-23T18:09:03.585Z,99.90
2023-05-23T18:11:32.278Z,99.90
2023-05-23T18:14:00.899Z,99.90
2023-05-23T18:16:31.006Z,99.90
2023-05-23T18:18:59.770Z,99.90
2023-05-23T18:21:28.884Z,99.90
2023-05-23T18:24:09.131Z,99.90
2023-05-23T18:26:42.246Z,99.90
2023-05-23T18:29:11.162Z,99.90
2023-05-23T18:31:41.509Z,99.90
2023-05-23T18:34:10.246Z,99.90
2023-05-23T18:36:38.905Z,99.90
2023-05-23T18:39:17.014Z,99.90
2023-05-23T18:41:45.744Z,99.90
2023-05-23T18:44:14.620Z,99.90
2023-05-23T18:46:44.713Z,99.90
2023-05-23T18:49:13.443Z,99.90
2023-05-23T18:51:42.129Z,99.90
2023-05-23T18:54:10.857Z,99.90
2023-05-23T18:56:42.223Z,99.90
2023-05-23T18:59:15.956Z,99.90
2023-05-23T19:01:46.112Z,99.90
2023-05-23T19:04:15.117Z,99.90
2023-05-23T19:06:43.875Z,99.90
2023-05-23T19:09:12.470Z,99.90
2023-05-23T19:11:41.546Z,99.90
2023-05-23T19:14:10.428Z,99.90
2023-05-23T19:16:40.088Z,99.90
2023-05-23T19:19:10.217Z,99.90
2023-05-23T19:21:38.882Z,99.90
2023-05-23T19:24:08.611Z,99.90
2023-05-23T19:26:37.370Z,99.90
2023-05-23T19:29:06.377Z,99.90
2023-05-23T19:31:35.581Z,99.90
2023-05-23T19:34:04.325Z,99.90
2023-05-23T19:36:35.574Z,99.90
2023-05-23T19:39:07.434Z,99.90
2023-05-23T19:41:36.048Z,99.90
2023-05-23T19:44:04.669Z,99.90
2023-05-23T19:46:33.462Z,99.90
2023-05-23T19:49:02.325Z,99.90
2023-05-23T19:51:31.001Z,99.90
2023-05-23T19:54:01.405Z,99.90
2023-05-23T19:56:30.344Z,99.90
2023-05-23T19:58:59.013Z,99.90
2023-05-23T20:01:27.806Z,99.90
2023-05-23T20:03:56.618Z,99.90
2023-05-23T20:06:25.347Z,99.90
2023-05-23T20:08:54.091Z,99.90
2023-05-23T20:11:25.181Z,99.90
2023-05-23T20:13:54.013Z,99.90
2023-05-23T20:16:23.448Z,99.90
2023-05-23T20:18:52.192Z,99.90
2023-05-23T20:21:20.863Z,99.90
2023-05-23T20:43:09.623Z,99.90
2023-05-23T20:45:38.220Z,99.90
2023-05-23T20:48:06.883Z,99.90
2023-05-23T20:50:36.713Z,99.90
2023-05-23T20:53:06.467Z,99.90
2023-05-23T20:55:35.858Z,99.90
2023-05-23T20:58:04.675Z,99.90
2023-05-23T21:00:34.717Z,99.90
2023-05-23T21:03:03.717Z,99.90
2023-05-23T21:05:32.464Z,99.90
2023-05-23T21:08:01.159Z,99.90
2023-05-23T21:10:30.190Z,99.90
2023-05-23T21:13:00.222Z,99.90
2023-05-23T21:15:29.055Z,99.90
2023-05-23T21:17:59.035Z,99.90
2023-05-23T21:20:29.212Z,99.90
2023-05-23T21:22:58.469Z,99.90
2023-05-23T21:25:27.444Z,99.90
2023-05-23T21:27:56.140Z,99.90
2023-05-23T21:30:26.310Z,99.90
2023-05-23T21:32:55.228Z,99.90
2023-05-23T21:35:25.405Z,99.90
2023-05-23T21:37:54.398Z,99.90
2023-05-23T21:40:25.309Z,99.90
2023-05-23T21:42:53.972Z,99.90
2023-05-23T21:45:22.742Z,99.90
2023-05-23T21:47:51.408Z,99.90
2023-05-23T21:50:20.340Z,99.90
2023-05-23T21:52:50.381Z,99.90
2023-05-23T21:55:18.979Z,99.90
2023-05-23T21:57:48.815Z,99.90
2023-05-23T22:00:19.692Z,99.90
2023-05-23T22:02:48.578Z,99.90
2023-05-23T22:05:17.402Z,99.90
2023-05-23T22:07:46.087Z,99.90
2023-05-23T22:10:16.337Z,99.90
2023-05-23T22:12:44.983Z,99.90
2023-05-23T22:15:13.646Z,99.90
2023-05-23T22:17:43.777Z,99.90
2023-05-23T22:20:14.776Z,99.90
2023-05-23T22:22:44.033Z,99.90
2023-05-23T22:25:12.699Z,99.90
2023-05-23T22:27:42.688Z,99.90
2023-05-23T22:30:12.187Z,99.90
2023-05-23T22:32:40.892Z,99.90
2023-05-23T22:35:10.422Z,99.90
2023-05-23T22:37:39.027Z,99.90
2023-05-23T22:40:10.037Z,99.90
2023-05-23T22:42:40.042Z,99.90
2023-05-23T22:45:11.341Z,99.90
2023-05-23T22:47:41.666Z,99.90
2023-05-23T22:50:11.319Z,99.90
2023-05-23T22:52:40.472Z,99.90
2023-05-23T22:55:09.949Z,99.90
2023-05-23T22:57:38.837Z,99.90
2023-05-23T23:00:11.188Z,99.90
2023-05-23T23:02:40.040Z,99.90
2023-05-23T23:05:11.945Z,99.90
2023-05-23T23:07:40.631Z,99.90
2023-05-23T23:10:10.891Z,99.90
2023-05-23T23:12:39.529Z,99.90
2023-05-23T23:15:10.514Z,99.90
2023-05-23T23:17:39.585Z,99.90
2023-05-23T23:20:10.426Z,99.90
2023-05-23T23:22:39.406Z,99.90
2023-05-23T23:25:10.760Z,99.90
2023-05-23T23:27:39.608Z,99.90
2023-05-23T23:30:10.817Z,99.90
2023-05-23T23:32:39.808Z,99.90
2023-05-23T23:35:09.058Z,99.90
2023-05-23T23:37:37.761Z,99.90
2023-05-23T23:40:08.454Z,99.90
2023-05-23T23:42:37.169Z,99.90
2023-05-23T23:45:06.538Z,99.90
2023-05-23T23:47:37.612Z,99.90
2023-05-23T23:50:07.712Z,99.90
2023-05-23T23:52:37.334Z,99.90
2023-05-23T23:55:07.148Z,99.90
2023-05-23T23:57:35.768Z,99.90
